Aviation Digital Data Service (ADDS)

Output produced by TAFs form (1329 UTC 30 September 2016)
found at http://www.aviationweather.gov/adds/tafs/
 
KMDT 301203Z 3012/0112 07010KT P6SM OVC010 
     FM301800 06010KT P6SM OVC015